Time;durP1;ratioP1;P1;durP2;ratioP2;P2;SDS_P1;SDS_P2;PMS_P1;PMS_P2;Temp;Humidity;BMP_temperature;BMP_pressure;BME280_temperature;BME280_humidity;BME280_pressure;Samples;Min_cycle;Max_cycle;Signal;HPM_P1;HPM_P2
2023/06/17 00:00:43;;;;;;;17.47;10.70;;;15.40;85.90;;;;;;5083864;27;21009;-60
2023/06/17 00:03:10;;;;;;;14.43;11.17;;;15.40;85.50;;;;;;5069299;27;20478;-60
2023/06/17 00:05:38;;;;;;;22.03;11.40;;;15.30;85.90;;;;;;5073690;27;20565;-60
2023/06/17 00:08:06;;;;;;;12.83;8.97;;;15.30;85.90;;;;;;5079973;27;20514;-60
2023/06/17 00:10:32;;;;;;;31.27;9.77;;;15.20;85.70;;;;;;5061626;28;20527;-60
2023/06/17 00:13:00;;;;;;;11.47;10.07;;;15.10;85.80;;;;;;5056483;28;20502;-60
2023/06/17 00:15:28;;;;;;;10.93;9.83;;;15.00;86.40;;;;;;5067453;28;20478;-60
2023/06/17 00:17:56;;;;;;;15.90;10.50;;;15.00;85.50;;;;;;5067884;28;21405;-60
2023/06/17 00:20:23;;;;;;;11.73;9.70;;;15.00;86.00;;;;;;5062824;27;20831;-59
2023/06/17 00:40:16;;;;;;;16.13;11.30;;;14.70;86.00;;;;;;5047805;28;20473;-62
2023/06/17 00:42:43;;;;;;;10.57;9.43;;;14.70;86.00;;;;;;5021326;28;20786;-61
2023/06/17 00:45:10;;;;;;;22.73;10.80;;;14.40;86.60;;;;;;5081921;27;20499;-60
2023/06/17 00:47:38;;;;;;;18.10;12.07;;;14.20;88.20;;;;;;5079275;27;20492;-59
2023/06/17 00:50:09;;;;;;;21.10;13.00;;;14.00;89.60;;;;;;5057865;27;20492;-59
2023/06/17 00:52:37;;;;;;;34.27;11.77;;;13.80;90.50;;;;;;5080966;27;20585;-59
2023/06/17 00:55:05;;;;;;;28.87;16.70;;;13.70;91.20;;;;;;5087295;27;20904;-59
2023/06/17 00:57:33;;;;;;;20.87;13.00;;;13.60;91.60;;;;;;5086354;27;20825;-60
2023/06/17 01:00:01;;;;;;;20.47;10.97;;;13.60;91.60;;;;;;5091731;27;20490;-59
2023/06/17 01:02:28;;;;;;;29.87;15.73;;;13.60;91.40;;;;;;5060825;28;20489;-60
2023/06/17 01:04:55;;;;;;;26.13;14.60;;;13.60;91.10;;;;;;5077953;28;20486;-61
2023/06/17 01:07:35;;;;;;;15.87;10.90;;;13.70;90.50;;;;;;5056921;27;20544;-59
2023/06/17 01:10:07;;;;;;;15.67;11.70;;;13.70;90.50;;;;;;5079258;28;20534;-59
2023/06/17 01:12:36;;;;;;;22.33;11.27;;;13.70;90.10;;;;;;5062787;28;20486;-59
2023/06/17 01:15:03;;;;;;;30.20;16.13;;;13.80;89.50;;;;;;5075732;28;20486;-59
2023/06/17 01:17:30;;;;;;;27.03;14.70;;;13.80;88.90;;;;;;5082452;28;20492;-59
2023/06/17 01:19:58;;;;;;;25.13;13.30;;;13.90;88.60;;;;;;5083700;28;20466;-60
2023/06/17 01:22:26;;;;;;;37.13;18.97;;;14.00;89.30;;;;;;5083567;28;20562;-59
2023/06/17 01:24:56;;;;;;;24.03;13.90;;;14.00;88.60;;;;;;5078366;28;20493;-59
2023/06/17 01:27:24;;;;;;;33.90;16.43;;;13.90;88.50;;;;;;5064436;28;20970;-59
2023/06/17 01:29:52;;;;;;;21.60;13.20;;;13.90;88.10;;;;;;5099645;28;20482;-59
2023/06/17 01:32:19;;;;;;;29.03;15.17;;;13.70;89.50;;;;;;5075981;28;20895;-60
2023/06/17 01:34:53;;;;;;;27.87;14.67;;;13.50;90.20;;;;;;5081925;28;20540;-60
2023/06/17 01:37:26;;;;;;;36.60;20.00;;;13.50;89.60;;;;;;5053083;28;20544;-60
2023/06/17 01:39:57;;;;;;;30.50;12.93;;;13.60;88.80;;;;;;5064228;28;20482;-59
2023/06/17 01:42:29;;;;;;;28.97;16.97;;;13.70;88.90;;;;;;5065863;28;20488;-59
2023/06/17 01:44:57;;;;;;;32.33;18.33;;;;;;;;;;5079476;28;20571;-60
2023/06/17 01:47:25;;;;;;;28.50;16.97;;;13.80;88.40;;;;;;5078224;28;20746;-60
2023/06/17 01:49:52;;;;;;;30.97;17.07;;;13.70;87.90;;;;;;5084109;27;20859;-59
2023/06/17 01:52:19;;;;;;;25.50;14.10;;;13.70;87.40;;;;;;5077851;28;20492;-60
2023/06/17 01:54:46;;;;;;;26.83;14.43;;;13.70;86.50;;;;;;5081762;28;20528;-59
2023/06/17 01:57:14;;;;;;;21.57;13.03;;;13.70;86.40;;;;;;5065565;28;20573;-59
2023/06/17 01:59:41;;;;;;;26.07;15.27;;;13.70;87.00;;;;;;5069891;28;20486;-59
2023/06/17 02:02:08;;;;;;;27.07;15.77;;;13.60;87.30;;;;;;5070930;28;20470;-59
2023/06/17 02:04:35;;;;;;;18.67;12.30;;;13.60;87.50;;;;;;5064451;28;20478;-60
2023/06/17 02:07:02;;;;;;;22.60;12.90;;;13.50;87.50;;;;;;5065316;28;20478;-60
2023/06/17 02:09:28;;;;;;;31.60;17.23;;;13.40;87.60;;;;;;5072167;28;20485;-60
2023/06/17 02:11:55;;;;;;;27.77;14.90;;;13.30;88.00;;;;;;5069948;28;20501;-60
2023/06/17 02:14:23;;;;;;;31.53;16.40;;;13.30;87.60;;;;;;5054790;27;20486;-59
2023/06/17 02:16:52;;;;;;;16.53;11.37;;;13.30;88.10;;;;;;5084898;27;20486;-59
2023/06/17 02:19:21;;;;;;;33.73;17.37;;;13.20;88.10;;;;;;5078147;27;20840;-59
2023/06/17 02:21:48;;;;;;;39.27;14.50;;;13.10;90.00;;;;;;5067953;27;20493;-59
2023/06/17 02:24:15;;;;;;;27.83;13.67;;;13.00;90.30;;;;;;5071752;27;20472;-60
2023/06/17 02:26:41;;;;;;;26.23;15.33;;;13.00;90.20;;;;;;5072872;27;20485;-59
2023/06/17 02:29:08;;;;;;;35.43;15.47;;;12.90;90.00;;;;;;5085161;27;20496;-59
2023/06/17 02:31:36;;;;;;;19.33;11.33;;;12.90;90.00;;;;;;5076330;27;21002;-59
2023/06/17 02:34:03;;;;;;;29.30;14.80;;;12.80;90.10;;;;;;5096069;27;20478;-59
2023/06/17 02:36:30;;;;;;;44.77;15.80;;;12.70;90.20;;;;;;5080571;27;20489;-59
2023/06/17 02:38:59;;;;;;;22.53;13.27;;;12.60;90.20;;;;;;5101003;27;20532;-59
2023/06/17 02:41:26;;;;;;;37.70;17.40;;;12.50;90.30;;;;;;5054689;28;20679;-59
2023/06/17 02:43:53;;;;;;;25.53;12.53;;;12.50;90.00;;;;;;5081778;28;21114;-59
2023/06/17 02:46:20;;;;;;;36.53;18.10;;;12.50;90.00;;;;;;5070302;28;20482;-60
2023/06/17 02:48:48;;;;;;;27.90;15.40;;;12.50;90.00;;;;;;5070388;28;20835;-59
2023/06/17 02:51:15;;;;;;;42.37;14.97;;;12.50;90.20;;;;;;5073506;27;20880;-59
2023/06/17 02:53:42;;;;;;;28.03;15.80;;;12.60;90.40;;;;;;5058697;27;20998;-59
2023/06/17 02:56:09;;;;;;;35.97;17.77;;;12.60;90.60;;;;;;5091130;27;20482;-59
2023/06/17 02:58:36;;;;;;;35.50;13.50;;;12.50;90.80;;;;;;5072547;28;20501;-60
2023/06/17 03:01:05;;;;;;;24.83;14.30;;;12.50;90.90;;;;;;5078297;28;20475;-59
2023/06/17 03:03:36;;;;;;;27.47;14.90;;;12.50;90.40;;;;;;5077245;28;20828;-59
2023/06/17 03:06:05;;;;;;;25.23;13.50;;;12.40;90.10;;;;;;5065051;28;20482;-60
2023/06/17 03:08:34;;;;;;;22.60;13.77;;;12.50;90.30;;;;;;5073183;28;20600;-60
2023/06/17 03:11:01;;;;;;;20.60;12.33;;;12.50;90.40;;;;;;5073231;28;21182;-59
2023/06/17 03:13:28;;;;;;;28.13;14.77;;;12.50;90.20;;;;;;5054975;28;20866;-60
2023/06/17 03:15:56;;;;;;;29.53;15.67;;;12.50;90.00;;;;;;5067001;28;20477;-60
2023/06/17 03:18:23;;;;;;;33.97;17.30;;;12.50;90.50;;;;;;5063979;28;20474;-60
2023/06/17 03:20:53;;;;;;;21.40;13.40;;;12.50;90.30;;;;;;5086332;28;20973;-60
2023/06/17 03:23:21;;;;;;;32.57;16.73;;;12.50;90.00;;;;;;5074444;28;20477;-59
2023/06/17 03:25:49;;;;;;;29.67;13.97;;;12.50;90.30;;;;;;5057186;28;20577;-60
2023/06/17 03:28:16;;;;;;;28.83;14.80;;;12.50;90.40;;;;;;5050512;28;20548;-60
2023/06/17 03:30:43;;;;;;;22.10;13.43;;;12.30;90.20;;;;;;5066117;28;20487;-59
2023/06/17 03:33:10;;;;;;;27.03;14.73;;;12.30;90.70;;;;;;5086417;28;21005;-59
2023/06/17 03:35:37;;;;;;;21.90;12.97;;;12.30;90.90;;;;;;5075217;28;20479;-60
2023/06/17 03:38:03;;;;;;;22.70;12.70;;;12.20;91.20;;;;;;5071989;28;20501;-60
2023/06/17 03:40:32;;;;;;;27.77;13.60;;;12.30;90.60;;;;;;5073467;28;20478;-60
2023/06/17 03:42:58;;;;;;;27.30;13.97;;;12.30;90.50;;;;;;5070854;28;20466;-60
2023/06/17 03:45:25;;;;;;;35.63;18.43;;;12.30;90.60;;;;;;5075166;28;20972;-59
2023/06/17 03:47:52;;;;;;;22.00;13.77;;;12.10;91.50;;;;;;5076560;28;20634;-59
2023/06/17 03:50:19;;;;;;;31.17;15.67;;;12.20;91.30;;;;;;5078088;28;20483;-60
2023/06/17 03:52:46;;;;;;;27.40;15.07;;;12.30;91.00;;;;;;5076076;28;20486;-61
2023/06/17 03:55:13;;;;;;;25.63;14.63;;;12.40;90.60;;;;;;5071903;28;21165;-61
2023/06/17 03:57:41;;;;;;;19.27;12.77;;;12.50;90.60;;;;;;5081429;27;20477;-61
2023/06/17 04:00:11;;;;;;;24.90;13.23;;;12.60;90.30;;;;;;5077137;28;20494;-61
2023/06/17 04:02:38;;;;;;;18.40;12.17;;;12.50;90.40;;;;;;5072905;28;20647;-60
2023/06/17 04:05:06;;;;;;;28.57;14.17;;;12.50;90.40;;;;;;5077638;28;20478;-60
2023/06/17 04:07:33;;;;;;;23.10;14.03;;;12.50;90.30;;;;;;5076981;28;20577;-60
2023/06/17 04:10:00;;;;;;;36.20;13.40;;;12.30;90.30;;;;;;5076865;28;21185;-59
2023/06/17 04:12:27;;;;;;;27.93;15.50;;;12.00;90.80;;;;;;5067409;28;20502;-60
2023/06/17 04:14:55;;;;;;;31.10;14.50;;;11.90;91.20;;;;;;5077088;28;21514;-61
2023/06/17 04:17:22;;;;;;;29.33;15.07;;;11.90;91.30;;;;;;5081493;28;20531;-60
2023/06/17 04:19:48;;;;;;;28.03;15.53;;;11.90;91.50;;;;;;5077873;28;20474;-60
2023/06/17 04:22:15;;;;;;;21.13;13.17;;;11.90;91.90;;;;;;5074651;28;20482;-60
2023/06/17 04:24:42;;;;;;;40.23;15.07;;;11.90;92.30;;;;;;5075403;28;20479;-59
2023/06/17 04:27:09;;;;;;;28.90;16.20;;;12.00;92.60;;;;;;5076898;28;20486;-60
2023/06/17 04:29:36;;;;;;;21.57;14.17;;;12.00;93.00;;;;;;5065691;28;20485;-59
2023/06/17 04:32:09;;;;;;;36.63;15.17;;;12.00;93.00;;;;;;5044246;28;20799;-59
2023/06/17 04:34:38;;;;;;;19.67;12.77;;;12.10;92.80;;;;;;5053560;28;20476;-59
2023/06/17 04:37:05;;;;;;;28.10;16.20;;;12.20;92.70;;;;;;5036112;28;20983;-59
2023/06/17 04:39:34;;;;;;;34.40;15.93;;;12.20;92.40;;;;;;5055330;28;20472;-59
2023/06/17 04:42:01;;;;;;;23.67;13.97;;;12.40;92.50;;;;;;5070997;27;20497;-59
2023/06/17 04:44:31;;;;;;;22.63;14.67;;;12.50;92.20;;;;;;5068482;28;21033;-59
2023/06/17 04:46:59;;;;;;;29.50;15.93;;;12.60;92.20;;;;;;5067728;28;20934;-59
2023/06/17 04:49:28;;;;;;;32.40;16.20;;;12.70;92.20;;;;;;5090303;28;20488;-59
2023/06/17 04:51:56;;;;;;;22.50;14.23;;;12.80;92.00;;;;;;5074506;28;20563;-59
2023/06/17 04:54:24;;;;;;;36.67;18.93;;;12.90;92.30;;;;;;5072233;28;21164;-59
2023/06/17 04:56:51;;;;;;;27.00;16.27;;;13.00;92.50;;;;;;5077588;28;20858;-59
2023/06/17 04:59:19;;;;;;;31.43;15.33;;;13.20;92.50;;;;;;5047383;28;20475;-59
2023/06/17 05:01:46;;;;;;;23.47;14.73;;;13.40;92.50;;;;;;5052836;28;20495;-60
2023/06/17 05:04:12;;;;;;;30.73;16.53;;;13.60;92.60;;;;;;5095124;28;20495;-59
2023/06/17 05:06:40;;;;;;;42.63;16.83;;;13.80;92.90;;;;;;5095226;28;20800;-59
2023/06/17 05:09:08;;;;;;;31.23;16.77;;;13.90;92.90;;;;;;5083257;28;20497;-59
2023/06/17 05:11:35;;;;;;;17.87;13.20;;;14.00;92.60;;;;;;5073387;28;20569;-59
2023/06/17 05:14:01;;;;;;;22.60;13.90;;;14.10;92.40;;;;;;5075706;28;20898;-59
2023/06/17 05:16:28;;;;;;;28.73;17.60;;;14.10;92.60;;;;;;5072308;28;20486;-59
2023/06/17 05:18:55;;;;;;;23.70;15.17;;;14.10;92.80;;;;;;5094897;28;20472;-59
2023/06/17 05:21:22;;;;;;;29.17;15.50;;;14.20;93.00;;;;;;5086080;28;20475;-59
2023/06/17 05:23:51;;;;;;;24.27;15.50;;;14.30;93.10;;;;;;5078954;28;20481;-59
2023/06/17 05:26:18;;;;;;;28.77;16.60;;;14.40;93.40;;;;;;5060643;28;20486;-59
2023/06/17 05:28:45;;;;;;;34.13;15.80;;;14.40;93.60;;;;;;5080543;28;20886;-60
2023/06/17 05:31:12;;;;;;;24.50;16.20;;;14.50;93.80;;;;;;5075293;28;20902;-59
2023/06/17 05:33:39;;;;;;;24.07;15.60;;;14.70;93.10;;;;;;5085439;28;20486;-59
2023/06/17 05:36:06;;;;;;;36.93;16.47;;;14.80;93.10;;;;;;5086584;28;20490;-59
2023/06/17 05:38:33;;;;;;;23.00;15.47;;;14.90;93.60;;;;;;5079910;28;20486;-59
2023/06/17 05:41:01;;;;;;;23.23;15.50;;;15.10;93.60;;;;;;5077038;28;20473;-59
2023/06/17 05:43:30;;;;;;;32.00;18.53;;;15.30;93.20;;;;;;5090476;27;20481;-59
2023/06/17 05:45:56;;;;;;;21.33;15.27;;;15.40;92.90;;;;;;5090601;28;20555;-59
2023/06/17 05:48:23;;;;;;;32.13;19.20;;;15.60;93.50;;;;;;5067717;28;20474;-59
2023/06/17 05:50:50;;;;;;;27.10;14.90;;;15.80;93.80;;;;;;5056932;28;20490;-59
2023/06/17 05:53:17;;;;;;;29.23;18.17;;;16.00;93.90;;;;;;5094668;28;20485;-59
2023/06/17 05:55:44;;;;;;;25.90;17.23;;;16.10;93.70;;;;;;5068279;28;20563;-59
2023/06/17 05:58:12;;;;;;;27.33;15.50;;;16.30;93.70;;;;;;5075466;28;20478;-59
2023/06/17 06:00:39;;;;;;;25.87;16.73;;;16.40;93.40;;;;;;5078020;28;20482;-60
2023/06/17 06:03:06;;;;;;;22.87;16.27;;;16.50;93.50;;;;;;5077703;28;20479;-58
2023/06/17 06:05:33;;;;;;;29.77;15.73;;;16.70;92.80;;;;;;5072811;28;20482;-59
2023/06/17 06:07:59;;;;;;;22.87;16.50;;;16.70;93.10;;;;;;5064840;28;21193;-59
2023/06/17 06:10:28;;;;;;;30.00;20.07;;;16.90;92.80;;;;;;5074406;28;20474;-59
2023/06/17 06:12:55;;;;;;;24.10;14.60;;;17.00;92.80;;;;;;5065272;28;21047;-59
2023/06/17 06:15:25;;;;;;;28.03;19.10;;;17.10;93.10;;;;;;5063471;28;20479;-59
2023/06/17 06:17:52;;;;;;;21.53;16.63;;;17.30;93.10;;;;;;5075424;28;20474;-59
2023/06/17 06:20:19;;;;;;;37.50;21.53;;;17.50;93.00;;;;;;5067483;28;20482;-59
2023/06/17 06:22:46;;;;;;;25.10;18.00;;;17.70;92.60;;;;;;5082721;28;20487;-59
2023/06/17 06:25:12;;;;;;;24.13;17.00;;;17.80;92.20;;;;;;5083388;28;20466;-59
2023/06/17 06:27:39;;;;;;;19.87;13.67;;;18.00;92.60;;;;;;5091250;27;20937;-59
2023/06/17 06:30:07;;;;;;;24.33;16.90;;;18.10;91.70;;;;;;5073083;28;20475;-59
2023/06/17 06:32:35;;;;;;;21.33;15.20;;;18.40;91.40;;;;;;5075285;28;20717;-59
2023/06/17 06:35:03;;;;;;;25.43;14.33;;;18.50;90.80;;;;;;5075237;28;20471;-59
2023/06/17 06:37:29;;;;;;;24.60;16.70;;;18.70;90.20;;;;;;5079008;28;20478;-59
2023/06/17 06:39:56;;;;;;;22.23;13.90;;;18.90;90.20;;;;;;5068612;28;20544;-60
2023/06/17 06:42:23;;;;;;;27.53;16.60;;;19.10;89.20;;;;;;5061938;28;20507;-60
2023/06/17 06:44:50;;;;;;;23.60;13.53;;;19.30;86.30;;;;;;5075952;28;20482;-59
2023/06/17 06:47:17;;;;;;;20.47;15.70;;;19.40;86.60;;;;;;5049901;28;20479;-59
2023/06/17 06:49:45;;;;;;;22.70;13.77;;;19.70;85.40;;;;;;5086082;28;20467;-59
2023/06/17 06:52:12;;;;;;;15.53;12.50;;;19.90;85.50;;;;;;5065999;28;20931;-59
2023/06/17 06:54:39;;;;;;;13.00;11.43;;;20.10;84.50;;;;;;5074214;28;20986;-60
2023/06/17 06:57:06;;;;;;;19.90;12.70;;;20.40;86.00;;;;;;5053980;28;21001;-59
2023/06/17 06:59:32;;;;;;;18.97;14.17;;;20.70;86.20;;;;;;5066293;28;20547;-59
2023/06/17 07:01:59;;;;;;;16.93;13.23;;;20.90;85.60;;;;;;5097280;27;20487;-60
2023/06/17 07:04:26;;;;;;;20.10;11.60;;;21.30;85.50;;;;;;5090851;28;20482;-59
2023/06/17 07:06:55;;;;;;;16.67;11.57;;;21.50;84.90;;;;;;5095983;28;20487;-59
2023/06/17 07:09:22;;;;;;;16.17;12.20;;;21.80;84.30;;;;;;5096102;28;20476;-60
2023/06/17 07:11:49;;;;;;;18.37;12.60;;;22.10;84.20;;;;;;5094884;28;20492;-60
2023/06/17 07:14:16;;;;;;;18.70;11.80;;;22.40;82.60;;;;;;5097251;28;20861;-60
2023/06/17 07:16:42;;;;;;;14.50;12.57;;;22.70;82.40;;;;;;5093182;28;20856;-60
2023/06/17 07:19:09;;;;;;;24.63;13.33;;;23.00;83.40;;;;;;5083608;28;20900;-59
2023/06/17 07:21:36;;;;;;;11.77;10.47;;;23.30;81.40;;;;;;5095809;28;20497;-60
2023/06/17 07:24:05;;;;;;;14.70;12.33;;;23.60;81.60;;;;;;5099375;28;20824;-60
2023/06/17 07:26:32;;;;;;;12.50;11.13;;;23.90;80.00;;;;;;5097537;28;20590;-59
2023/06/17 07:29:00;;;;;;;15.93;12.27;;;24.10;80.90;;;;;;5097585;28;20985;-59
2023/06/17 07:31:30;;;;;;;13.70;11.60;;;24.50;78.90;;;;;;5069759;28;20543;-59
2023/06/17 07:33:57;;;;;;;12.50;11.10;;;24.70;78.60;;;;;;5061454;28;20477;-59
2023/06/17 07:36:23;;;;;;;17.47;15.07;;;24.90;79.60;;;;;;5092220;28;21006;-59
2023/06/17 07:38:51;;;;;;;11.80;10.70;;;25.30;78.60;;;;;;5103694;27;21101;-59
2023/06/17 07:41:20;;;;;;;13.67;12.23;;;25.50;74.70;;;;;;5100191;27;20591;-59
2023/06/17 07:43:47;;;;;;;11.70;10.07;;;25.60;73.50;;;;;;5090481;28;20541;-60
2023/06/17 07:46:14;;;;;;;15.17;12.87;;;25.90;73.60;;;;;;5093186;28;20472;-60
2023/06/17 07:48:40;;;;;;;14.73;10.47;;;26.00;73.20;;;;;;5097369;28;20481;-60
2023/06/17 07:51:08;;;;;;;16.67;11.93;;;26.20;73.00;;;;;;5077848;28;20830;-60
2023/06/17 07:53:35;;;;;;;10.03;8.17;;;26.50;74.20;;;;;;5047821;28;20979;-60
2023/06/17 07:56:02;;;;;;;12.20;10.60;;;26.70;71.70;;;;;;5088823;27;20477;-60
2023/06/17 07:58:30;;;;;;;14.87;11.97;;;26.90;74.00;;;;;;5073163;28;20537;-60
2023/06/17 08:00:57;;;;;;;18.10;11.00;;;27.10;71.80;;;;;;5055068;28;20547;-60
2023/06/17 08:03:24;;;;;;;20.53;14.30;;;;;;;;;;5064109;27;20494;-60
2023/06/17 08:05:51;;;;;;;14.67;10.97;;;27.40;66.90;;;;;;5108394;27;20472;-60
2023/06/17 08:08:18;;;;;;;25.30;10.27;;;27.50;68.70;;;;;;5074664;28;20486;-61
2023/06/17 08:10:45;;;;;;;14.23;10.97;;;27.70;69.00;;;;;;5045557;28;20649;-61
2023/06/17 08:13:12;;;;;;;14.77;12.43;;;27.90;66.80;;;;;;5065412;28;21018;-61
2023/06/17 08:15:40;;;;;;;27.83;10.97;;;28.10;67.10;;;;;;5082936;27;20807;-61
2023/06/17 08:18:07;;;;;;;11.47;10.37;;;28.30;68.00;;;;;;5077695;28;20482;-60
2023/06/17 08:20:36;;;;;;;17.33;9.10;;;28.50;65.90;;;;;;5074313;28;20477;-60
2023/06/17 08:23:03;;;;;;;21.97;9.20;;;28.70;65.10;;;;;;5059953;28;20494;-60
2023/06/17 08:25:31;;;;;;;12.47;9.53;;;28.90;65.30;;;;;;5075247;28;20481;-60
2023/06/17 08:27:58;;;;;;;11.33;10.00;;;28.90;61.90;;;;;;5052410;28;20734;-60
2023/06/17 08:30:25;;;;;;;12.20;9.17;;;29.20;62.90;;;;;;5072860;28;20977;-60
2023/06/17 08:32:53;;;;;;;11.10;9.00;;;29.20;63.00;;;;;;5061766;28;20484;-60
2023/06/17 08:35:20;;;;;;;12.47;10.70;;;29.30;62.70;;;;;;5048442;28;21034;-60
2023/06/17 08:37:47;;;;;;;12.63;8.13;;;29.60;60.70;;;;;;5056217;28;20720;-60
2023/06/17 08:40:15;;;;;;;11.23;10.10;;;29.60;57.10;;;;;;5056236;28;20489;-60
2023/06/17 08:42:43;;;;;;;9.93;8.93;;;29.80;59.90;;;;;;5081076;28;20484;-59
2023/06/17 08:45:11;;;;;;;9.70;7.43;;;29.80;60.30;;;;;;5067893;27;20499;-60
2023/06/17 08:47:37;;;;;;;8.33;6.80;;;29.90;56.90;;;;;;5079879;28;20488;-60
2023/06/17 08:50:07;;;;;;;9.67;8.30;;;30.00;57.20;;;;;;5059629;28;20853;-60
2023/06/17 08:52:36;;;;;;;11.60;8.10;;;30.00;49.80;;;;;;5067213;28;20488;-60
2023/06/17 08:55:03;;;;;;;9.60;8.17;;;29.90;49.80;;;;;;5062389;28;20527;-60
2023/06/17 08:57:31;;;;;;;9.70;8.27;;;29.80;51.60;;;;;;5049228;28;20490;-60
2023/06/17 08:59:58;;;;;;;10.97;6.23;;;29.90;52.80;;;;;;5051604;28;21262;-60
2023/06/17 09:02:25;;;;;;;12.10;10.90;;;29.90;53.20;;;;;;5073158;28;20919;-60
2023/06/17 09:04:52;;;;;;;9.60;7.67;;;29.80;50.80;;;;;;5079209;28;20509;-60
2023/06/17 09:07:22;;;;;;;9.60;8.60;;;29.90;56.50;;;;;;5058279;28;20506;-60
2023/06/17 09:09:54;;;;;;;10.30;9.10;;;30.00;55.50;;;;;;5055773;28;20487;-60
2023/06/17 09:12:24;;;;;;;21.53;9.73;;;30.30;56.00;;;;;;5076354;28;20649;-61
2023/06/17 09:14:54;;;;;;;9.33;8.37;;;30.40;54.50;;;;;;5040947;28;20473;-60
2023/06/17 09:17:31;;;;;;;11.20;9.47;;;30.70;55.40;;;;;;5076352;28;20490;-60
2023/06/17 09:20:10;;;;;;;11.50;8.53;;;30.80;53.80;;;;;;5091721;28;20476;-60
2023/06/17 09:22:39;;;;;;;11.23;8.00;;;30.80;53.00;;;;;;5077520;28;21126;-61
2023/06/17 09:25:11;;;;;;;9.40;7.27;;;30.50;51.50;;;;;;5092070;28;20476;-61
2023/06/17 09:27:44;;;;;;;9.60;7.40;;;30.40;52.40;;;;;;5092076;28;20562;-60
2023/06/17 09:30:13;;;;;;;8.10;7.30;;;30.60;54.50;;;;;;5093109;28;20512;-60
2023/06/17 09:32:41;;;;;;;8.73;7.83;;;30.60;48.60;;;;;;5092549;28;20792;-60
2023/06/17 09:35:11;;;;;;;9.87;8.87;;;30.70;52.30;;;;;;5077523;28;20489;-61
2023/06/17 09:37:40;;;;;;;11.00;7.70;;;30.90;54.40;;;;;;5083724;28;20492;-60
2023/06/17 09:40:13;;;;;;;8.27;7.23;;;31.10;53.30;;;;;;5092109;28;20890;-61
2023/06/17 09:42:40;;;;;;;8.17;7.33;;;31.30;53.00;;;;;;5062754;28;21178;-61
2023/06/17 09:45:23;;;;;;;10.40;6.03;;;31.40;50.40;;;;;;5093784;28;21173;-61
2023/06/17 09:47:52;;;;;;;7.13;6.43;;;31.20;48.80;;;;;;5068659;28;20473;-61
2023/06/17 09:50:20;;;;;;;15.37;7.50;;;31.10;47.50;;;;;;5071548;28;20489;-61
2023/06/17 09:52:52;;;;;;;7.10;6.40;;;31.20;52.50;;;;;;5092773;28;20481;-60
2023/06/17 09:55:21;;;;;;;12.40;7.63;;;31.50;52.70;;;;;;5070098;28;20573;-60
2023/06/17 09:57:53;;;;;;;9.07;6.67;;;31.50;51.90;;;;;;5072828;28;20785;-60
2023/06/17 10:00:24;;;;;;;6.63;6.03;;;31.70;51.90;;;;;;5090004;28;20870;-60
2023/06/17 10:02:53;;;;;;;8.07;6.50;;;31.50;49.00;;;;;;5091907;28;20710;-60
2023/06/17 10:05:20;;;;;;;8.07;6.83;;;31.50;51.70;;;;;;5089958;28;21005;-60
2023/06/17 10:07:49;;;;;;;9.00;6.87;;;31.50;52.10;;;;;;5094324;28;20850;-60
2023/06/17 10:10:17;;;;;;;9.13;6.70;;;31.70;52.40;;;;;;5076155;28;20459;-60
2023/06/17 10:12:45;;;;;;;7.00;6.30;;;31.90;52.80;;;;;;5067107;28;20488;-61
2023/06/17 10:15:14;;;;;;;15.87;6.20;;;32.10;53.40;;;;;;5074092;28;20452;-60
2023/06/17 10:17:44;;;;;;;5.97;5.13;;;32.40;51.00;;;;;;5076261;28;20502;-60
2023/06/17 10:20:12;;;;;;;8.27;6.30;;;32.50;50.00;;;;;;5095703;28;20553;-60
2023/06/17 10:22:40;;;;;;;10.20;7.20;;;32.60;52.20;;;;;;5085666;28;20456;-60
2023/06/17 10:25:10;;;;;;;7.80;7.00;;;32.70;50.30;;;;;;5089533;28;20454;-60
2023/06/17 10:27:37;;;;;;;7.07;6.17;;;32.60;49.40;;;;;;5090742;28;20541;-61
2023/06/17 10:30:24;;;;;;;8.77;7.50;;;32.30;47.20;;;;;;5097872;28;20905;-60
2023/06/17 10:32:55;;;;;;;7.40;6.60;;;32.00;48.50;;;;;;5092855;28;20444;-61
2023/06/17 10:35:21;;;;;;;9.43;5.73;;;31.90;47.70;;;;;;5083259;28;20484;-60
2023/06/17 10:37:48;;;;;;;7.67;6.43;;;32.10;49.70;;;;;;5097726;28;20473;-60
2023/06/17 10:40:27;;;;;;;8.57;6.63;;;;;;;;;;5055971;28;21083;-60
2023/06/17 10:42:59;;;;;;;7.50;6.47;;;32.20;48.30;;;;;;5097509;28;20551;-60
2023/06/17 10:45:28;;;;;;;7.50;6.03;;;32.30;48.60;;;;;;5071285;28;20473;-60
2023/06/17 10:48:16;;;;;;;9.53;5.73;;;32.30;48.00;;;;;;5099695;27;20491;-60
2023/06/17 10:50:46;;;;;;;8.13;5.97;;;32.20;48.00;;;;;;5096771;28;20676;-61
2023/06/17 10:53:16;;;;;;;14.60;7.67;;;32.30;47.80;;;;;;5096724;28;20478;-60
2023/06/17 10:55:45;;;;;;;6.90;6.30;;;32.30;49.40;;;;;;5071566;28;20544;-60
2023/06/17 10:58:12;;;;;;;10.03;6.53;;;32.40;49.70;;;;;;5091284;28;20511;-60
2023/06/17 11:00:38;;;;;;;8.07;5.50;;;32.50;47.70;;;;;;5097262;27;20490;-60
2023/06/17 11:03:06;;;;;;;6.80;6.17;;;32.60;48.40;;;;;;5098780;28;20455;-60
2023/06/17 11:05:35;;;;;;;9.23;6.97;;;32.80;48.20;;;;;;5092167;28;20907;-60
2023/06/17 11:08:03;;;;;;;11.60;6.40;;;32.60;48.30;;;;;;5092974;28;20547;-61
2023/06/17 11:10:29;;;;;;;9.80;7.17;;;32.30;45.00;;;;;;5085669;28;20488;-61
2023/06/17 11:12:58;;;;;;;7.47;6.63;;;32.00;45.20;;;;;;5076027;27;20816;-60
2023/06/17 11:15:24;;;;;;;20.13;7.30;;;31.50;46.90;;;;;;5063768;28;20467;-60
2023/06/17 11:18:00;;;;;;;7.43;6.67;;;31.40;46.10;;;;;;5104281;27;20482;-60
2023/06/17 11:20:28;;;;;;;24.30;7.10;;;31.50;46.30;;;;;;5086192;27;20489;-61
2023/06/17 11:22:55;;;;;;;12.63;6.60;;;31.60;48.20;;;;;;5068841;28;20480;-61
2023/06/17 11:25:22;;;;;;;10.43;5.47;;;31.70;46.90;;;;;;5063101;28;20452;-61
2023/06/17 11:27:49;;;;;;;10.40;5.43;;;31.70;46.30;;;;;;5074490;28;20573;-61
2023/06/17 11:30:19;;;;;;;7.40;5.80;;;31.70;47.50;;;;;;5070871;28;20481;-60
2023/06/17 11:32:46;;;;;;;11.13;5.73;;;31.80;48.80;;;;;;5088371;28;20474;-61
2023/06/17 11:35:14;;;;;;;13.00;5.73;;;31.80;46.80;;;;;;5094612;28;20822;-61
2023/06/17 11:37:42;;;;;;;13.30;6.50;;;32.10;48.80;;;;;;5093709;28;20594;-61
2023/06/17 11:40:12;;;;;;;6.00;5.50;;;32.50;49.60;;;;;;5095243;28;20482;-62
2023/06/17 11:42:40;;;;;;;7.83;5.30;;;32.30;44.50;;;;;;5060498;28;20554;-61
2023/06/17 11:45:08;;;;;;;7.30;6.70;;;32.30;46.50;;;;;;5062632;28;20539;-62
2023/06/17 11:47:37;;;;;;;6.90;5.07;;;31.80;45.30;;;;;;5061358;28;20478;-62
2023/06/17 11:50:08;;;;;;;10.20;5.97;;;32.10;50.80;;;;;;5083195;28;20829;-61
2023/06/17 11:52:35;;;;;;;5.97;5.47;;;32.40;47.80;;;;;;5067204;28;20856;-61
2023/06/17 11:55:04;;;;;;;4.63;4.13;;;32.80;47.40;;;;;;5056785;27;20449;-61
2023/06/17 11:57:32;;;;;;;6.53;5.27;;;32.40;45.20;;;;;;5094388;27;20449;-61
2023/06/17 12:00:01;;;;;;;7.53;5.70;;;32.40;48.30;;;;;;5091282;27;20489;-61
2023/06/17 12:02:28;;;;;;;6.10;5.33;;;32.70;47.20;;;;;;5070834;28;20889;-61
2023/06/17 12:05:01;;;;;;;5.77;4.77;;;32.80;46.90;;;;;;5094314;28;20478;-61
2023/06/17 12:07:28;;;;;;;6.97;6.27;;;32.80;46.30;;;;;;5096963;28;20543;-63
2023/06/17 12:09:56;;;;;;;15.03;5.93;;;32.70;44.50;;;;;;5084004;28;20464;-61
2023/06/17 12:12:28;;;;;;;7.60;6.40;;;32.50;44.80;;;;;;5092904;28;21151;-61
2023/06/17 12:14:59;;;;;;;5.47;4.97;;;32.10;47.20;;;;;;5097087;28;20474;-61
2023/06/17 12:17:27;;;;;;;6.10;5.60;;;31.70;46.50;;;;;;5068921;28;20919;-62
2023/06/17 12:20:02;;;;;;;6.20;5.70;;;31.40;45.60;;;;;;5094156;28;20962;-61
2023/06/17 12:22:28;;;;;;;10.30;6.23;;;31.10;46.00;;;;;;5044630;28;20539;-61
2023/06/17 12:24:55;;;;;;;5.67;5.17;;;31.10;47.60;;;;;;5074558;28;20470;-61
2023/06/17 12:27:29;;;;;;;6.40;5.87;;;31.20;45.40;;;;;;5078452;27;20490;-61
2023/06/17 12:29:57;;;;;;;10.83;5.40;;;31.20;47.30;;;;;;5071136;28;21039;-61
2023/06/17 12:32:24;;;;;;;6.00;5.40;;;31.30;45.70;;;;;;5057445;27;20560;-61
2023/06/17 12:34:51;;;;;;;6.20;5.60;;;31.40;47.90;;;;;;5076780;28;20523;-61
2023/06/17 12:37:23;;;;;;;9.80;5.40;;;31.20;46.80;;;;;;5063626;28;20473;-61
2023/06/17 12:39:50;;;;;;;7.47;5.73;;;31.10;44.50;;;;;;5069418;28;20889;-61
2023/06/17 12:42:18;;;;;;;6.50;5.80;;;31.10;44.90;;;;;;5083121;27;20536;-60
2023/06/17 12:44:46;;;;;;;6.57;5.97;;;31.10;45.30;;;;;;5064009;28;20506;-61
2023/06/17 12:47:13;;;;;;;6.77;6.17;;;31.10;45.20;;;;;;5082623;27;20964;-61
2023/06/17 12:49:40;;;;;;;7.57;6.83;;;31.50;46.40;;;;;;5084181;27;20484;-61
2023/06/17 12:52:07;;;;;;;7.33;5.90;;;31.70;44.00;;;;;;5087702;27;20486;-61
2023/06/17 12:54:35;;;;;;;6.87;6.27;;;31.80;45.60;;;;;;5070016;27;20487;-61